createdAt,value
2022-12-31T00:00:23.882Z,51.27
2022-12-31T00:02:51.734Z,60.10
2022-12-31T00:05:19.321Z,98.97
2022-12-31T00:07:46.705Z,109.67
2022-12-31T00:10:14.675Z,130.00
2022-12-31T00:12:42.015Z,124.97
2022-12-31T00:15:09.526Z,110.50
2022-12-31T00:17:37.200Z,97.77
2022-12-31T00:20:04.840Z,92.20
2022-12-31T00:22:32.133Z,93.20
2022-12-31T00:24:59.814Z,91.70
2022-12-31T00:27:27.049Z,74.37
2022-12-31T00:29:55.063Z,68.63
2022-12-31T00:32:26.393Z,57.00
2022-12-31T00:34:53.650Z,47.22
2022-12-31T00:37:20.925Z,40.77
2022-12-31T00:39:48.429Z,67.63
2022-12-31T00:42:15.733Z,81.60
2022-12-31T00:44:42.927Z,80.27
2022-12-31T00:47:10.671Z,75.47
2022-12-31T00:49:38.046Z,76.47
2022-12-31T00:52:06.042Z,72.20
2022-12-31T00:54:34.307Z,73.97
2022-12-31T00:57:01.582Z,72.20
2022-12-31T00:59:28.856Z,65.07
2022-12-31T01:01:56.749Z,66.90
2022-12-31T01:04:24.058Z,65.50
2022-12-31T01:06:51.559Z,64.20
2022-12-31T01:09:19.361Z,61.10
2022-12-31T01:11:46.842Z,60.57
2022-12-31T01:14:16.697Z,50.00
2022-12-31T01:16:50.970Z,51.80
2022-12-31T01:19:24.483Z,58.70
2022-12-31T01:21:53.228Z,58.03
2022-12-31T01:24:21.175Z,59.83
2022-12-31T01:26:50.975Z,59.35
2022-12-31T01:29:19.401Z,61.08
2022-12-31T01:31:46.737Z,56.97
2022-12-31T01:34:14.117Z,58.30
2022-12-31T01:36:41.832Z,61.27
2022-12-31T01:39:11.353Z,62.07
2022-12-31T01:41:42.853Z,59.03
2022-12-31T01:44:13.506Z,62.83
2022-12-31T01:46:46.779Z,61.77
2022-12-31T01:49:20.578Z,61.73
2022-12-31T01:52:17.409Z,54.67
2022-12-31T01:54:50.643Z,53.93
2022-12-31T01:57:18.568Z,56.60
2022-12-31T01:59:46.873Z,53.07
2022-12-31T02:02:16.088Z,53.30
2022-12-31T02:04:44.017Z,53.07
2022-12-31T02:07:12.107Z,51.83
2022-12-31T02:09:41.191Z,55.77
2022-12-31T02:14:46.838Z,52.07
2022-12-31T02:17:26.262Z,53.57
2022-12-31T02:20:20.652Z,52.72
2022-12-31T02:23:06.623Z,51.47
2022-12-31T02:26:00.423Z,50.63
2022-12-31T02:28:58.858Z,53.07
2022-12-31T02:31:37.516Z,51.30
2022-12-31T02:34:12.048Z,48.33
2022-12-31T02:36:44.645Z,49.63
2022-12-31T02:39:13.964Z,54.10
2022-12-31T02:41:50.211Z,52.97
2022-12-31T02:44:35.437Z,52.73
2022-12-31T02:47:08.820Z,53.67
2022-12-31T02:49:47.424Z,56.17
2022-12-31T02:52:32.395Z,52.00
2022-12-31T02:55:38.503Z,54.63
2022-12-31T02:58:21.666Z,53.03
2022-12-31T03:01:13.780Z,53.03
2022-12-31T03:03:41.844Z,51.33
2022-12-31T03:06:11.663Z,54.77
2022-12-31T03:09:02.343Z,54.53
2022-12-31T03:11:48.472Z,53.30
2022-12-31T03:14:15.806Z,54.70
2022-12-31T03:16:43.307Z,54.13
2022-12-31T03:19:29.126Z,52.67
2022-12-31T03:22:15.457Z,58.10
2022-12-31T03:25:01.257Z,56.00
2022-12-31T03:27:28.859Z,57.63
2022-12-31T03:29:56.208Z,59.20
2022-12-31T03:32:23.502Z,58.87
2022-12-31T03:34:51.112Z,55.83
2022-12-31T03:37:18.403Z,55.60
2022-12-31T03:39:46.054Z,55.33
2022-12-31T03:42:13.625Z,52.73
2022-12-31T03:44:41.779Z,51.33
2022-12-31T03:47:09.226Z,50.33
2022-12-31T03:49:36.760Z,56.50
2022-12-31T03:52:06.498Z,53.80
2022-12-31T03:54:33.660Z,49.13
2022-12-31T03:59:30.160Z,45.80
2022-12-31T04:01:57.534Z,49.13
2022-12-31T04:04:25.200Z,45.30
2022-12-31T04:06:52.618Z,39.87
2022-12-31T04:09:20.104Z,38.53
2022-12-31T04:11:47.894Z,39.07
2022-12-31T04:14:17.304Z,37.10
2022-12-31T04:19:13.628Z,19.73
2022-12-31T04:21:41.080Z,26.97
2022-12-31T04:24:08.603Z,25.03
2022-12-31T04:26:36.700Z,26.83
2022-12-31T04:29:05.644Z,27.37
2022-12-31T04:31:33.248Z,27.25
2022-12-31T04:34:02.071Z,23.00
2022-12-31T04:36:29.540Z,23.97
2022-12-31T04:38:57.334Z,17.93
2022-12-31T04:41:27.242Z,18.43
2022-12-31T04:46:27.932Z,21.97
2022-12-31T04:48:56.021Z,23.60
2022-12-31T04:51:24.678Z,25.20
2022-12-31T04:53:52.261Z,33.05
2022-12-31T04:56:20.522Z,31.17
2022-12-31T04:58:48.149Z,29.57
2022-12-31T05:01:16.873Z,29.20
2022-12-31T05:03:46.171Z,24.12
2022-12-31T05:06:19.680Z,18.60
2022-12-31T05:08:48.449Z,17.27
2022-12-31T05:11:17.108Z,17.02
2022-12-31T05:13:45.097Z,17.58
2022-12-31T05:16:12.886Z,17.77
2022-12-31T05:18:40.300Z,15.33
2022-12-31T05:21:07.728Z,18.03
2022-12-31T05:23:35.738Z,22.33
2022-12-31T05:26:03.235Z,20.90
2022-12-31T05:28:30.642Z,19.17
2022-12-31T05:30:58.411Z,18.97
2022-12-31T05:33:25.920Z,20.77
2022-12-31T05:35:53.242Z,20.93
2022-12-31T05:38:22.064Z,22.20
2022-12-31T05:40:49.363Z,19.37
2022-12-31T05:43:16.657Z,19.90
2022-12-31T05:45:44.399Z,19.00
2022-12-31T05:48:11.743Z,19.33
2022-12-31T05:50:39.148Z,18.57
2022-12-31T05:55:35.672Z,16.67
2022-12-31T05:58:03.227Z,19.77
2022-12-31T06:00:31.198Z,21.63
2022-12-31T06:02:58.966Z,247.03
2022-12-31T06:05:26.829Z,91.23
2022-12-31T06:07:54.300Z,85.27
2022-12-31T06:10:21.947Z,91.97
2022-12-31T06:12:49.307Z,90.33
2022-12-31T06:15:16.812Z,87.60
2022-12-31T06:17:44.496Z,70.00
2022-12-31T06:20:13.306Z,48.47
2022-12-31T06:22:40.963Z,39.22
2022-12-31T06:25:09.126Z,34.53
2022-12-31T06:27:36.605Z,31.53
2022-12-31T06:30:04.247Z,30.73
2022-12-31T06:32:32.164Z,29.47
2022-12-31T06:34:59.440Z,25.93
2022-12-31T06:37:27.681Z,25.40
2022-12-31T06:39:55.396Z,38.92
2022-12-31T06:42:25.148Z,62.93
2022-12-31T06:44:53.807Z,67.30
2022-12-31T06:47:21.617Z,60.27
2022-12-31T06:49:48.896Z,49.83
2022-12-31T06:52:16.336Z,49.53
2022-12-31T06:54:44.344Z,37.80
2022-12-31T06:57:12.210Z,34.80
2022-12-31T06:59:39.873Z,22.27
2022-12-31T07:02:29.748Z,14.80
2022-12-31T07:05:13.209Z,17.37
2022-12-31T07:07:55.762Z,16.53
2022-12-31T07:10:38.345Z,14.90
2022-12-31T07:13:28.592Z,152.30
2022-12-31T07:16:14.271Z,136.23
2022-12-31T07:18:55.267Z,125.07
2022-12-31T07:21:33.597Z,161.23
2022-12-31T07:24:02.008Z,136.37
2022-12-31T07:26:42.722Z,101.03
2022-12-31T07:29:19.436Z,71.13
2022-12-31T07:32:13.038Z,61.73
2022-12-31T07:34:59.498Z,35.20
2022-12-31T07:37:46.539Z,29.57
2022-12-31T07:40:29.589Z,49.00
2022-12-31T07:43:29.241Z,52.63
2022-12-31T07:46:08.410Z,53.80
2022-12-31T07:48:36.076Z,47.50
2022-12-31T07:51:05.871Z,49.73
2022-12-31T07:53:33.441Z,49.90
2022-12-31T07:56:02.104Z,55.13
2022-12-31T07:59:00.636Z,38.08
2022-12-31T08:01:47.376Z,53.60
2022-12-31T08:04:48.661Z,53.00
2022-12-31T08:07:25.339Z,47.17
2022-12-31T08:09:58.346Z,33.50
2022-12-31T08:12:31.449Z,24.97
2022-12-31T08:14:59.862Z,33.27
2022-12-31T08:17:27.478Z,33.70
2022-12-31T08:19:55.196Z,37.70
2022-12-31T08:22:27.505Z,30.43
2022-12-31T08:25:28.604Z,29.20
2022-12-31T08:28:31.874Z,27.53
2022-12-31T08:31:31.406Z,35.20
2022-12-31T08:34:15.507Z,32.10
2022-12-31T08:36:56.715Z,29.87
2022-12-31T08:39:33.004Z,21.93
2022-12-31T08:42:04.210Z,17.60
2022-12-31T08:44:46.116Z,12.83
2022-12-31T08:47:48.374Z,18.63
2022-12-31T08:50:18.290Z,20.40
2022-12-31T08:52:46.691Z,23.00
2022-12-31T08:55:16.556Z,16.35
2022-12-31T08:57:50.581Z,23.00
2022-12-31T09:00:19.723Z,23.33
2022-12-31T09:06:11.891Z,16.47
2022-12-31T09:09:10.718Z,20.33
2022-12-31T09:12:00.046Z,22.92
2022-12-31T09:14:31.112Z,25.93
2022-12-31T09:17:19.460Z,24.23
2022-12-31T09:19:47.367Z,16.35
2022-12-31T09:22:14.865Z,17.43
2022-12-31T09:24:42.425Z,13.70
2022-12-31T09:27:28.569Z,15.93
2022-12-31T09:30:12.098Z,16.53
2022-12-31T09:33:01.413Z,16.33
2022-12-31T09:35:37.602Z,13.83
2022-12-31T09:38:11.983Z,15.60
2022-12-31T09:40:54.393Z,13.67
2022-12-31T09:44:00.995Z,12.13
2022-12-31T09:46:56.862Z,12.47
2022-12-31T09:49:30.334Z,13.57
2022-12-31T09:52:22.967Z,11.73
2022-12-31T09:54:55.959Z,14.33
2022-12-31T09:57:40.000Z,19.43
2022-12-31T10:00:21.213Z,19.70
2022-12-31T10:03:18.215Z,13.67
2022-12-31T10:06:11.914Z,13.50
2022-12-31T10:09:04.483Z,13.03
2022-12-31T10:11:56.545Z,25.23
2022-12-31T10:14:55.772Z,23.07
2022-12-31T10:20:15.427Z,15.00
2022-12-31T10:22:57.999Z,12.33
2022-12-31T10:26:00.374Z,9.60
2022-12-31T10:28:37.792Z,14.00
2022-12-31T10:31:33.026Z,19.23
2022-12-31T10:34:03.390Z,9.23
2022-12-31T10:36:47.824Z,10.70
2022-12-31T10:39:20.469Z,9.32
2022-12-31T10:41:54.665Z,11.23
2022-12-31T10:44:42.793Z,6.77
2022-12-31T10:47:28.935Z,4.70
2022-12-31T10:50:14.970Z,6.90
2022-12-31T10:53:04.798Z,4.25
2022-12-31T10:55:41.324Z,4.78
2022-12-31T10:58:33.208Z,8.43
2022-12-31T11:01:33.968Z,11.68
2022-12-31T11:04:36.411Z,12.35
2022-12-31T11:07:24.493Z,9.02
2022-12-31T11:09:55.386Z,8.18
2022-12-31T11:12:50.873Z,7.25
2022-12-31T11:15:21.798Z,8.23
2022-12-31T11:18:07.213Z,9.52
2022-12-31T11:20:44.004Z,8.93
2022-12-31T11:23:17.290Z,6.87
2022-12-31T11:26:12.835Z,6.72
2022-12-31T11:28:43.929Z,6.60
2022-12-31T11:31:36.965Z,6.70
2022-12-31T11:34:12.277Z,5.82
2022-12-31T11:37:06.216Z,6.53
2022-12-31T11:39:52.655Z,7.25
2022-12-31T11:42:32.717Z,7.50
2022-12-31T11:45:13.193Z,7.40
2022-12-31T11:48:32.890Z,8.20
2022-12-31T11:51:37.669Z,9.50
2022-12-31T11:54:27.346Z,9.82
2022-12-31T11:57:08.340Z,9.15
2022-12-31T11:59:36.685Z,10.25
2022-12-31T12:02:32.553Z,9.95
2022-12-31T12:05:08.565Z,9.77
2022-12-31T12:07:38.367Z,8.23
2022-12-31T12:10:21.604Z,9.07
2022-12-31T12:12:49.367Z,8.05
2022-12-31T12:15:32.296Z,8.25
2022-12-31T12:18:06.333Z,10.45
2022-12-31T12:20:40.365Z,8.93
2022-12-31T12:23:17.377Z,8.20
2022-12-31T12:25:46.499Z,9.73
2022-12-31T12:28:25.877Z,8.73
2022-12-31T12:31:03.033Z,12.73
2022-12-31T12:33:41.295Z,13.15
2022-12-31T12:36:14.852Z,13.20
2022-12-31T12:38:43.551Z,14.15
2022-12-31T12:41:19.620Z,11.80
2022-12-31T12:43:47.018Z,9.18
2022-12-31T12:46:32.922Z,8.57
2022-12-31T12:49:00.687Z,8.88
2022-12-31T12:51:41.435Z,10.10
2022-12-31T12:54:26.135Z,9.38
2022-12-31T12:57:12.727Z,9.95
2022-12-31T13:00:02.082Z,9.77
2022-12-31T13:02:35.929Z,9.47
2022-12-31T13:05:34.373Z,9.00
2022-12-31T13:08:26.646Z,10.77
2022-12-31T13:11:06.490Z,10.10
2022-12-31T13:14:01.618Z,9.35
2022-12-31T13:16:48.015Z,11.02
2022-12-31T13:19:52.975Z,14.23
2022-12-31T13:22:22.191Z,13.15
2022-12-31T13:25:03.171Z,14.87
2022-12-31T13:27:45.145Z,12.30
2022-12-31T13:30:34.157Z,16.12
2022-12-31T13:35:48.174Z,30.05
2022-12-31T13:38:21.887Z,61.90
2022-12-31T13:41:15.476Z,102.68
2022-12-31T13:44:09.192Z,62.90
2022-12-31T13:47:04.940Z,56.92
2022-12-31T13:49:45.359Z,70.77
2022-12-31T13:52:31.114Z,89.07
2022-12-31T13:55:03.931Z,86.80
2022-12-31T13:57:47.040Z,98.33
2022-12-31T14:00:37.935Z,92.73
2022-12-31T14:03:24.940Z,90.20
2022-12-31T14:05:58.797Z,92.80
2022-12-31T14:08:26.821Z,77.10
2022-12-31T14:10:57.379Z,83.60
2022-12-31T14:13:44.455Z,81.57
2022-12-31T14:16:22.841Z,87.20
2022-12-31T14:19:33.260Z,81.57
2022-12-31T14:22:26.947Z,73.33
2022-12-31T14:24:57.169Z,73.53
2022-12-31T14:27:29.193Z,74.87
2022-12-31T14:29:58.710Z,73.27
2022-12-31T14:32:57.593Z,66.97
2022-12-31T14:35:49.436Z,65.78
2022-12-31T14:38:26.112Z,51.97
2022-12-31T14:41:01.748Z,50.63
2022-12-31T14:43:59.918Z,45.83
2022-12-31T14:46:30.752Z,46.17
2022-12-31T14:49:10.708Z,51.07
2022-12-31T14:51:38.856Z,108.53
2022-12-31T14:54:28.961Z,54.45
2022-12-31T14:56:56.717Z,108.30
2022-12-31T14:59:34.449Z,62.37
2022-12-31T15:02:27.099Z,80.10
2022-12-31T15:05:29.047Z,73.80
2022-12-31T15:08:02.347Z,65.60
2022-12-31T15:10:30.208Z,51.83
2022-12-31T15:13:26.502Z,48.77
2022-12-31T15:16:20.545Z,48.53
2022-12-31T15:18:50.959Z,54.03
2022-12-31T15:21:24.661Z,62.40
2022-12-31T15:23:52.179Z,46.93
2022-12-31T15:26:31.471Z,44.23
2022-12-31T15:29:02.882Z,38.90
2022-12-31T15:31:33.814Z,41.53
2022-12-31T15:34:03.776Z,40.77
2022-12-31T15:36:53.332Z,41.57
2022-12-31T15:39:39.453Z,41.37
2022-12-31T15:42:49.144Z,40.13
2022-12-31T15:45:38.618Z,56.00
2022-12-31T15:48:14.824Z,67.43
2022-12-31T15:50:44.895Z,68.50
2022-12-31T15:53:29.704Z,57.00
2022-12-31T15:55:59.581Z,50.00
2022-12-31T15:58:31.351Z,44.90
2022-12-31T16:01:10.695Z,39.67
2022-12-31T16:03:44.130Z,43.07
2022-12-31T16:06:14.944Z,46.83
2022-12-31T16:08:48.111Z,57.33
2022-12-31T16:11:16.768Z,58.80
2022-12-31T16:13:50.749Z,50.87
2022-12-31T16:16:29.403Z,61.77
2022-12-31T16:18:58.259Z,50.75
2022-12-31T16:21:34.153Z,49.28
2022-12-31T16:24:28.271Z,51.10
2022-12-31T16:26:59.043Z,41.30
2022-12-31T16:29:27.528Z,39.47
2022-12-31T16:31:55.144Z,47.20
2022-12-31T16:34:27.944Z,59.03
2022-12-31T16:37:14.069Z,91.17
2022-12-31T16:40:01.332Z,84.83
2022-12-31T16:42:29.577Z,78.97
2022-12-31T16:44:58.146Z,66.60
2022-12-31T16:47:30.185Z,65.57
2022-12-31T16:50:20.202Z,76.07
2022-12-31T16:52:57.990Z,61.27
2022-12-31T16:55:29.128Z,38.97
2022-12-31T16:58:09.958Z,33.57
2022-12-31T17:00:38.431Z,30.87
2022-12-31T17:03:17.489Z,28.23
2022-12-31T17:06:07.480Z,26.83
2022-12-31T17:09:04.794Z,45.40
2022-12-31T17:12:10.266Z,76.10
2022-12-31T17:14:48.842Z,39.47
2022-12-31T17:17:25.935Z,27.85
2022-12-31T17:19:58.763Z,44.70
2022-12-31T17:22:36.682Z,129.03
2022-12-31T17:25:05.987Z,104.40
2022-12-31T17:27:35.312Z,65.32
2022-12-31T17:30:22.280Z,64.53
2022-12-31T17:32:51.930Z,57.17
2022-12-31T17:35:31.423Z,38.50
2022-12-31T17:38:22.312Z,23.53
2022-12-31T17:40:53.696Z,17.67
2022-12-31T17:43:23.838Z,18.10
2022-12-31T17:45:53.695Z,18.23
2022-12-31T17:48:24.495Z,23.17
2022-12-31T17:50:54.411Z,37.77
2022-12-31T17:53:22.652Z,40.23
2022-12-31T17:55:53.175Z,58.00
2022-12-31T17:58:43.747Z,54.83
2022-12-31T18:01:15.807Z,57.63
2022-12-31T18:03:44.040Z,40.83
2022-12-31T18:06:16.527Z,66.47
2022-12-31T18:08:44.910Z,55.37
2022-12-31T18:11:20.326Z,48.00
2022-12-31T18:13:48.531Z,54.47
2022-12-31T18:16:16.145Z,48.83
2022-12-31T18:18:45.531Z,66.30
2022-12-31T18:21:34.759Z,58.63
2022-12-31T18:26:33.254Z,71.10
2022-12-31T18:29:12.234Z,55.27
2022-12-31T18:31:40.185Z,39.77
2022-12-31T18:34:10.196Z,32.23
2022-12-31T18:36:37.815Z,30.13
2022-12-31T18:39:05.595Z,28.97
2022-12-31T18:41:53.380Z,24.43
2022-12-31T18:46:50.497Z,109.30
2022-12-31T18:49:17.767Z,119.37
2022-12-31T18:51:45.431Z,95.90
2022-12-31T18:54:14.010Z,99.97
2022-12-31T18:56:47.032Z,95.47
2022-12-31T18:59:16.331Z,91.00
2022-12-31T19:01:43.887Z,162.93
2022-12-31T19:04:14.858Z,97.30
2022-12-31T19:06:43.218Z,75.73
2022-12-31T19:09:30.706Z,74.03
2022-12-31T19:11:58.564Z,72.50
2022-12-31T19:14:26.837Z,62.87
2022-12-31T19:16:54.867Z,65.57
2022-12-31T19:19:22.490Z,73.15
2022-12-31T19:21:50.180Z,62.20
2022-12-31T19:24:27.693Z,78.93
2022-12-31T19:26:55.475Z,75.40
2022-12-31T19:29:25.175Z,52.20
2022-12-31T19:31:53.313Z,43.30
2022-12-31T19:34:21.179Z,45.03
2022-12-31T19:36:48.593Z,40.13
2022-12-31T19:39:18.976Z,52.60
2022-12-31T19:41:56.380Z,74.60
2022-12-31T19:44:26.774Z,73.90
2022-12-31T19:46:54.525Z,85.03
2022-12-31T19:49:22.067Z,95.83
2022-12-31T19:51:49.622Z,102.60
2022-12-31T19:54:17.301Z,101.73
2022-12-31T19:56:44.795Z,96.43
2022-12-31T19:59:12.184Z,94.37
2022-12-31T20:01:39.986Z,92.17
2022-12-31T20:04:08.023Z,84.70
2022-12-31T20:06:35.535Z,81.27
2022-12-31T20:09:03.444Z,68.63
2022-12-31T20:11:31.506Z,52.70
2022-12-31T20:13:58.954Z,60.87
2022-12-31T20:16:27.147Z,51.73
2022-12-31T20:18:55.016Z,53.08
2022-12-31T20:21:26.077Z,48.60
2022-12-31T20:23:54.641Z,38.63
2022-12-31T20:26:24.204Z,27.27
2022-12-31T20:28:51.664Z,27.08
2022-12-31T20:31:25.131Z,26.23
2022-12-31T20:33:54.488Z,29.73
2022-12-31T20:36:24.114Z,34.63
2022-12-31T20:38:52.179Z,41.05
2022-12-31T20:41:22.646Z,38.60
2022-12-31T20:43:50.725Z,29.53
2022-12-31T20:46:21.430Z,66.30
2022-12-31T20:48:50.898Z,70.97
2022-12-31T20:51:19.212Z,58.42
2022-12-31T20:54:01.042Z,61.77
2022-12-31T20:56:31.535Z,69.83
2022-12-31T20:58:59.452Z,49.83
2022-12-31T21:01:36.331Z,51.03
2022-12-31T21:04:15.443Z,45.93
2022-12-31T21:06:43.114Z,39.23
2022-12-31T21:09:10.646Z,36.77
2022-12-31T21:11:57.026Z,34.60
2022-12-31T21:14:24.409Z,43.03
2022-12-31T21:16:52.111Z,50.37
2022-12-31T21:19:19.551Z,45.27
2022-12-31T21:21:48.385Z,45.93
2022-12-31T21:24:23.263Z,94.13
2022-12-31T21:26:52.128Z,108.17
2022-12-31T21:29:19.920Z,64.03
2022-12-31T21:31:47.300Z,73.63
2022-12-31T21:34:14.922Z,59.97
2022-12-31T21:36:42.728Z,48.07
2022-12-31T21:39:10.066Z,50.73
2022-12-31T21:41:52.483Z,68.30
2022-12-31T21:44:22.705Z,90.53
2022-12-31T21:47:33.438Z,117.73
2022-12-31T21:49:42.878Z,121.93
2022-12-31T21:52:30.504Z,110.23
2022-12-31T21:55:19.193Z,99.33
2022-12-31T21:58:24.201Z,85.00
2022-12-31T22:00:55.892Z,82.13
2022-12-31T22:03:29.459Z,85.27
2022-12-31T22:06:02.134Z,80.83
2022-12-31T22:08:31.386Z,229.70
2022-12-31T22:10:58.747Z,81.35
2022-12-31T22:13:26.244Z,87.47
2022-12-31T22:16:03.800Z,62.23
2022-12-31T22:18:34.294Z,64.83
2022-12-31T22:21:15.550Z,68.27
2022-12-31T22:23:47.014Z,83.93
2022-12-31T22:26:17.195Z,138.68
2022-12-31T22:28:45.954Z,121.60
2022-12-31T22:31:18.701Z,121.68
2022-12-31T22:33:47.381Z,203.97
2022-12-31T22:36:17.598Z,173.67
2022-12-31T22:38:45.397Z,153.87
2022-12-31T22:41:19.862Z,126.72
2022-12-31T22:44:00.528Z,118.27
2022-12-31T22:46:30.911Z,132.70
2022-12-31T22:48:59.521Z,118.00
2022-12-31T22:51:57.630Z,113.35
2022-12-31T22:54:15.693Z,130.98
2022-12-31T22:56:43.112Z,101.73
2022-12-31T22:59:11.234Z,77.50
2022-12-31T23:01:39.146Z,63.05
2022-12-31T23:04:06.622Z,62.40
2022-12-31T23:06:43.578Z,65.97
2022-12-31T23:09:45.559Z,64.33
2022-12-31T23:12:12.892Z,73.97
2022-12-31T23:14:59.095Z,81.30
2022-12-31T23:17:45.977Z,94.97
2022-12-31T23:20:37.406Z,113.47
2022-12-31T23:23:11.993Z,107.10
2022-12-31T23:25:45.725Z,103.07
2022-12-31T23:28:19.328Z,93.57
2022-12-31T23:30:47.280Z,93.50
2022-12-31T23:33:17.667Z,106.77
2022-12-31T23:35:45.554Z,103.00
2022-12-31T23:38:13.891Z,113.20
2022-12-31T23:40:41.366Z,114.13
2022-12-31T23:43:10.488Z,93.80
2022-12-31T23:45:38.163Z,95.00
2022-12-31T23:48:05.639Z,71.57
2022-12-31T23:50:33.130Z,75.57
2022-12-31T23:53:00.783Z,74.77
2022-12-31T23:55:28.080Z,72.43
2022-12-31T23:57:55.514Z,72.87
